createdAt,value
2017-09-15T00:00:26.635Z,9.97
2017-09-15T00:02:54.164Z,10.43
2017-09-15T00:05:22.399Z,10.18
2017-09-15T00:07:50.057Z,9.40
2017-09-15T00:10:18.292Z,9.23
2017-09-15T00:12:45.752Z,9.03
2017-09-15T00:15:14.016Z,8.60
2017-09-15T00:17:42.278Z,8.43
2017-09-15T00:20:10.527Z,10.25
2017-09-15T00:22:37.987Z,9.93
2017-09-15T00:25:06.216Z,10.02
2017-09-15T00:27:33.881Z,11.32
2017-09-15T00:30:02.120Z,10.07
2017-09-15T00:32:29.584Z,8.85
2017-09-15T00:34:58.044Z,10.23
2017-09-15T00:37:26.315Z,10.80
2017-09-15T00:39:54.546Z,11.75
2017-09-15T00:42:22.033Z,11.23
2017-09-15T00:44:49.498Z,11.20
2017-09-15T00:47:16.991Z,13.40
2017-09-15T00:49:45.264Z,10.50
2017-09-15T00:52:13.512Z,11.63
2017-09-15T00:54:41.772Z,11.77
2017-09-15T00:57:10.043Z,11.10
2017-09-15T00:59:38.280Z,11.50
2017-09-15T01:02:05.836Z,13.25
2017-09-15T01:04:34.176Z,12.20
2017-09-15T01:07:01.636Z,10.85
2017-09-15T01:09:29.868Z,10.70
2017-09-15T01:11:57.448Z,12.15
2017-09-15T01:14:25.720Z,11.80
2017-09-15T01:16:53.229Z,12.20
2017-09-15T01:19:20.716Z,11.80
2017-09-15T01:21:48.179Z,11.90
2017-09-15T01:24:15.657Z,12.13
2017-09-15T01:26:43.224Z,11.88
2017-09-15T01:29:11.479Z,12.77
2017-09-15T01:31:39.839Z,12.55
2017-09-15T01:34:08.074Z,12.60
2017-09-15T01:36:35.560Z,13.38
2017-09-15T01:39:03.053Z,11.38
2017-09-15T01:41:30.524Z,12.45
2017-09-15T01:43:58.756Z,11.48
2017-09-15T01:46:26.436Z,11.48
2017-09-15T01:48:54.677Z,11.77
2017-09-15T01:51:23.656Z,11.32
2017-09-15T01:53:51.163Z,12.05
2017-09-15T01:56:18.660Z,10.90
2017-09-15T01:58:46.896Z,11.82
2017-09-15T02:01:14.372Z,13.25
2017-09-15T02:03:42.621Z,12.80
2017-09-15T02:06:11.029Z,12.37
2017-09-15T02:08:38.528Z,12.32
2017-09-15T02:11:06.784Z,14.07
2017-09-15T02:13:35.308Z,14.13
2017-09-15T02:16:02.768Z,14.63
2017-09-15T02:18:30.230Z,15.43
2017-09-15T02:20:58.464Z,15.90
2017-09-15T02:23:26.044Z,17.98
2017-09-15T02:25:54.300Z,18.77
2017-09-15T02:28:22.558Z,17.60
2017-09-15T02:30:50.828Z,18.90
2017-09-15T02:33:19.080Z,18.77
2017-09-15T02:35:47.319Z,18.65
2017-09-15T02:38:14.815Z,20.55
2017-09-15T02:40:42.320Z,20.83
2017-09-15T02:43:10.558Z,21.75
2017-09-15T02:45:38.128Z,23.67
2017-09-15T02:48:06.596Z,22.20
2017-09-15T02:50:34.836Z,25.17
2017-09-15T02:53:02.295Z,24.73
2017-09-15T02:55:30.564Z,24.08
2017-09-15T02:57:58.789Z,25.03
2017-09-15T03:00:26.272Z,27.85
2017-09-15T03:02:53.745Z,27.37
2017-09-15T03:05:21.212Z,27.02
2017-09-15T03:07:48.883Z,28.25
2017-09-15T03:10:17.115Z,29.05
2017-09-15T03:12:44.687Z,27.42
2017-09-15T03:15:12.940Z,26.12
2017-09-15T03:17:40.491Z,22.67
2017-09-15T03:20:08.731Z,25.35
2017-09-15T03:22:36.291Z,23.20
2017-09-15T03:25:04.556Z,26.30
2017-09-15T03:27:32.012Z,26.17
2017-09-15T03:29:59.482Z,26.23
2017-09-15T03:32:26.992Z,25.20
2017-09-15T03:34:55.446Z,27.17
2017-09-15T03:37:23.684Z,27.87
2017-09-15T03:39:51.930Z,25.77
2017-09-15T03:42:19.525Z,26.70
2017-09-15T03:44:47.757Z,26.60
2017-09-15T03:47:15.317Z,25.37
2017-09-15T03:49:43.581Z,27.13
2017-09-15T03:52:11.837Z,25.35
2017-09-15T03:54:40.103Z,27.23
2017-09-15T03:57:08.360Z,27.15
2017-09-15T03:59:36.593Z,28.25
2017-09-15T04:02:04.264Z,29.45
2017-09-15T04:04:32.520Z,27.20
2017-09-15T04:07:00.760Z,27.62
2017-09-15T04:09:28.328Z,28.48
2017-09-15T04:11:56.564Z,26.62
2017-09-15T04:14:24.033Z,26.40
2017-09-15T04:16:52.276Z,25.12
2017-09-15T04:19:19.785Z,26.45
2017-09-15T04:21:47.276Z,25.02
2017-09-15T04:24:15.543Z,24.70
2017-09-15T04:26:43.996Z,23.33
2017-09-15T04:29:12.227Z,26.45
2017-09-15T04:31:39.695Z,25.25
2017-09-15T04:34:08.068Z,22.55
2017-09-15T04:36:36.287Z,25.23
2017-09-15T04:39:03.756Z,26.60
2017-09-15T04:41:31.403Z,23.00
2017-09-15T04:43:59.664Z,19.75
2017-09-15T04:46:27.932Z,21.62
2017-09-15T04:48:56.392Z,23.45
2017-09-15T04:51:24.641Z,22.85
2017-09-15T04:53:52.116Z,23.30
2017-09-15T04:56:19.852Z,23.95
2017-09-15T04:58:48.113Z,25.33
2017-09-15T05:01:16.365Z,24.05
2017-09-15T05:03:44.623Z,24.95
2017-09-15T05:06:13.093Z,24.77
2017-09-15T05:08:41.316Z,20.98
2017-09-15T05:11:08.779Z,22.30
2017-09-15T05:13:36.268Z,22.67
2017-09-15T05:16:03.738Z,22.02
2017-09-15T05:18:31.201Z,21.80
2017-09-15T05:20:58.879Z,22.15
2017-09-15T05:23:27.121Z,22.15
2017-09-15T05:25:55.359Z,22.15
2017-09-15T05:28:22.840Z,21.70
2017-09-15T05:30:50.571Z,19.62
2017-09-15T05:33:18.832Z,18.42
2017-09-15T05:35:47.093Z,20.33
2017-09-15T05:38:15.457Z,20.10
2017-09-15T05:40:43.679Z,22.62
2017-09-15T05:43:11.144Z,20.60
2017-09-15T05:45:38.706Z,19.42
2017-09-15T05:48:06.956Z,22.08
2017-09-15T05:50:35.191Z,21.65
2017-09-15T05:53:02.792Z,19.70
2017-09-15T05:55:30.306Z,22.10
2017-09-15T05:57:58.573Z,23.25
2017-09-15T06:00:26.931Z,22.30
2017-09-15T06:02:55.172Z,22.23
2017-09-15T06:05:23.403Z,23.52
2017-09-15T06:07:50.998Z,24.95
2017-09-15T06:10:19.257Z,24.85
2017-09-15T06:12:47.567Z,26.10
2017-09-15T06:15:15.060Z,24.12
2017-09-15T06:17:43.292Z,25.52
2017-09-15T06:20:11.068Z,27.10
2017-09-15T06:22:39.296Z,27.48
2017-09-15T06:25:06.761Z,25.60
2017-09-15T06:27:35.028Z,28.33
2017-09-15T06:30:03.286Z,27.02
2017-09-15T06:32:31.543Z,29.25
2017-09-15T06:34:59.789Z,26.40
2017-09-15T06:37:27.297Z,28.60
2017-09-15T06:39:54.795Z,26.60
2017-09-15T06:42:23.048Z,25.80
2017-09-15T06:44:51.521Z,25.52
2017-09-15T06:47:19.757Z,28.92
2017-09-15T06:49:47.319Z,31.20
2017-09-15T06:52:15.784Z,31.05
2017-09-15T06:54:44.016Z,30.97
2017-09-15T06:57:11.480Z,31.80
2017-09-15T06:59:39.096Z,31.62
2017-09-15T07:02:06.568Z,32.50
2017-09-15T07:04:34.804Z,31.55
2017-09-15T07:07:02.288Z,34.58
2017-09-15T07:09:30.515Z,30.50
2017-09-15T07:11:58.288Z,30.80
2017-09-15T07:14:26.529Z,30.62
2017-09-15T07:16:54.093Z,29.85
2017-09-15T07:19:21.611Z,30.83
2017-09-15T07:21:49.077Z,29.42
2017-09-15T07:24:17.331Z,30.70
2017-09-15T07:26:45.904Z,30.85
2017-09-15T07:29:14.140Z,33.05
2017-09-15T07:31:41.604Z,33.67
2017-09-15T07:34:10.068Z,34.90
2017-09-15T07:36:38.296Z,33.92
2017-09-15T07:39:05.867Z,33.87
2017-09-15T07:41:34.111Z,35.00
2017-09-15T07:44:01.564Z,31.70
2017-09-15T07:46:29.028Z,31.63
2017-09-15T07:48:57.397Z,28.97
2017-09-15T07:51:25.635Z,29.07
2017-09-15T07:53:53.867Z,28.77
2017-09-15T07:56:21.353Z,29.93
2017-09-15T07:58:49.601Z,29.17
2017-09-15T08:01:17.955Z,26.80
2017-09-15T08:03:45.420Z,27.20
2017-09-15T08:06:13.660Z,25.07
2017-09-15T08:08:41.904Z,24.63
2017-09-15T08:11:09.464Z,26.40
2017-09-15T08:13:37.728Z,25.27
2017-09-15T08:16:05.992Z,27.50
2017-09-15T08:18:34.243Z,27.90
2017-09-15T08:21:02.507Z,30.37
2017-09-15T08:23:30.973Z,29.10
2017-09-15T08:25:59.208Z,29.10
2017-09-15T08:28:26.787Z,29.03
2017-09-15T08:30:54.528Z,29.50
2017-09-15T08:33:22.756Z,28.90
2017-09-15T08:35:50.331Z,25.43
2017-09-15T08:38:18.692Z,25.43
2017-09-15T08:40:46.952Z,26.67
2017-09-15T08:43:15.221Z,26.10
2017-09-15T08:45:43.455Z,24.70
2017-09-15T08:48:10.923Z,24.20
2017-09-15T08:50:39.152Z,23.53
2017-09-15T08:53:06.766Z,23.60
2017-09-15T08:55:34.260Z,20.70
2017-09-15T08:58:02.637Z,23.10
2017-09-15T09:00:30.868Z,19.00
2017-09-15T09:02:58.324Z,18.30
2017-09-15T09:05:26.792Z,18.00
2017-09-15T09:07:55.020Z,16.93
2017-09-15T09:10:22.500Z,16.77
2017-09-15T09:12:50.957Z,16.73
2017-09-15T09:15:19.179Z,16.00
2017-09-15T09:17:46.644Z,15.70
2017-09-15T09:20:14.200Z,14.50
2017-09-15T09:22:42.459Z,15.10
2017-09-15T09:25:10.697Z,14.33
2017-09-15T09:27:38.156Z,13.13
2017-09-15T09:30:06.420Z,14.27
2017-09-15T09:32:34.675Z,13.63
2017-09-15T09:35:02.173Z,12.93
2017-09-15T09:37:29.663Z,14.50
2017-09-15T09:39:57.212Z,13.03
2017-09-15T09:42:25.479Z,13.43
2017-09-15T09:44:53.712Z,13.37
2017-09-15T09:47:21.178Z,14.90
2017-09-15T09:49:49.529Z,14.13
2017-09-15T09:52:16.993Z,15.77
2017-09-15T09:54:45.215Z,14.10
2017-09-15T09:57:13.475Z,14.10
2017-09-15T09:59:40.935Z,17.00
2017-09-15T10:02:09.161Z,16.23
2017-09-15T10:04:36.658Z,15.73
2017-09-15T10:07:04.178Z,17.27
2017-09-15T10:09:31.723Z,18.97
2017-09-15T10:11:59.961Z,19.03
2017-09-15T10:14:27.417Z,18.63
2017-09-15T10:16:54.967Z,18.03
2017-09-15T10:19:23.224Z,18.80
2017-09-15T10:21:50.871Z,23.17
2017-09-15T10:24:19.132Z,18.83
2017-09-15T10:26:46.591Z,18.30
2017-09-15T10:29:14.824Z,17.60
2017-09-15T10:31:42.475Z,17.03
2017-09-15T10:34:09.935Z,17.77
2017-09-15T10:36:38.180Z,17.00
2017-09-15T10:39:06.583Z,15.87
2017-09-15T10:41:34.088Z,16.93
2017-09-15T10:44:02.348Z,16.47
2017-09-15T10:46:30.583Z,16.20
2017-09-15T10:48:58.161Z,16.37
2017-09-15T10:51:26.408Z,15.80
2017-09-15T10:53:53.877Z,14.87
2017-09-15T10:56:21.348Z,15.10
2017-09-15T10:58:54.504Z,14.53
2017-09-15T11:01:21.960Z,16.00
2017-09-15T11:03:49.437Z,16.03
2017-09-15T11:06:16.902Z,17.73
2017-09-15T11:08:44.348Z,18.23
2017-09-15T11:11:12.804Z,14.30
2017-09-15T11:13:41.063Z,16.37
2017-09-15T11:16:09.284Z,15.07
2017-09-15T11:18:36.752Z,18.00
2017-09-15T11:21:04.311Z,17.20
2017-09-15T11:23:32.688Z,17.73
2017-09-15T11:26:00.147Z,17.50
2017-09-15T11:28:27.600Z,12.00
2017-09-15T11:30:55.076Z,11.80
2017-09-15T11:33:22.535Z,12.60
2017-09-15T11:35:50.004Z,8.23
2017-09-15T11:38:17.463Z,8.40
2017-09-15T11:40:45.136Z,8.23
2017-09-15T11:43:12.599Z,8.03
2017-09-15T11:45:40.057Z,9.13
2017-09-15T11:48:08.288Z,9.53
2017-09-15T11:50:35.854Z,9.30
2017-09-15T11:53:04.112Z,8.20
2017-09-15T11:55:31.652Z,8.83
2017-09-15T11:57:59.296Z,9.37
2017-09-15T12:00:26.768Z,9.00
2017-09-15T12:02:54.224Z,7.70
2017-09-15T12:05:21.699Z,8.47
2017-09-15T12:07:49.921Z,8.43
2017-09-15T12:10:17.385Z,7.70
2017-09-15T12:12:44.848Z,7.80
2017-09-15T12:15:12.412Z,9.27
2017-09-15T12:17:40.636Z,8.63
2017-09-15T12:20:08.217Z,7.80
2017-09-15T12:22:35.678Z,9.10
2017-09-15T12:25:03.916Z,8.80
2017-09-15T12:27:32.156Z,9.03
2017-09-15T12:29:59.720Z,7.50
2017-09-15T12:32:27.264Z,8.10
2017-09-15T12:34:55.732Z,9.33
2017-09-15T12:37:23.959Z,8.40
2017-09-15T12:39:51.437Z,7.30
2017-09-15T12:42:19.795Z,7.07
2017-09-15T12:44:48.015Z,6.37
2017-09-15T12:47:15.509Z,5.63
2017-09-15T12:49:43.961Z,5.50
2017-09-15T12:52:11.412Z,5.30
2017-09-15T12:54:39.629Z,4.77
2017-09-15T12:57:07.100Z,5.37
2017-09-15T12:59:34.644Z,5.20
2017-09-15T13:02:02.188Z,4.60
2017-09-15T13:04:29.639Z,4.87
2017-09-15T13:06:57.897Z,4.70
2017-09-15T13:09:26.361Z,4.50
2017-09-15T13:11:54.621Z,3.50
2017-09-15T13:14:22.065Z,3.70
2017-09-15T13:16:50.515Z,4.10
2017-09-15T13:19:18.788Z,3.23
2017-09-15T13:21:47.046Z,3.87
2017-09-15T13:24:15.299Z,3.80
2017-09-15T13:26:42.848Z,4.90
2017-09-15T13:29:11.076Z,4.20
2017-09-15T13:31:38.543Z,4.17
2017-09-15T13:34:06.195Z,4.07
2017-09-15T13:36:33.644Z,3.93
2017-09-15T13:39:01.859Z,3.90
2017-09-15T13:41:29.323Z,2.90
2017-09-15T13:43:56.780Z,2.80
2017-09-15T13:46:25.236Z,3.30
2017-09-15T13:48:52.779Z,3.10
2017-09-15T13:51:21.045Z,3.20
2017-09-15T13:53:48.589Z,3.07
2017-09-15T13:56:16.040Z,2.60
2017-09-15T13:58:44.256Z,2.97
2017-09-15T14:01:11.913Z,2.80
2017-09-15T14:03:39.364Z,2.30
2017-09-15T14:06:06.818Z,3.40
2017-09-15T14:08:34.360Z,3.83
2017-09-15T14:11:01.812Z,3.50
2017-09-15T14:13:30.064Z,3.67
2017-09-15T14:15:58.316Z,3.67
2017-09-15T14:18:25.869Z,4.10
2017-09-15T14:20:54.132Z,3.20
2017-09-15T14:23:21.605Z,3.87
2017-09-15T14:25:49.112Z,3.33
2017-09-15T14:28:17.368Z,3.57
2017-09-15T14:30:45.589Z,3.67
2017-09-15T14:33:13.072Z,4.17
2017-09-15T14:35:40.536Z,3.60
2017-09-15T14:38:08.776Z,4.40
2017-09-15T14:40:37.012Z,4.30
2017-09-15T14:43:04.659Z,4.03
2017-09-15T14:45:32.124Z,3.90
2017-09-15T14:48:00.394Z,4.50
2017-09-15T14:50:28.611Z,4.33
2017-09-15T14:52:56.064Z,4.17
2017-09-15T14:55:23.712Z,3.90
2017-09-15T14:57:51.264Z,4.50
2017-09-15T15:00:19.501Z,3.60
2017-09-15T15:02:46.978Z,4.20
2017-09-15T15:05:15.229Z,4.30
2017-09-15T15:07:42.672Z,4.17
2017-09-15T15:10:10.129Z,4.80
2017-09-15T15:12:37.585Z,4.80
2017-09-15T15:15:05.923Z,5.10
2017-09-15T15:17:34.880Z,5.07
2017-09-15T15:20:02.331Z,5.20
2017-09-15T15:22:30.568Z,4.87
2017-09-15T15:24:58.019Z,5.17
2017-09-15T15:27:25.508Z,5.53
2017-09-15T15:29:53.724Z,6.50
2017-09-15T15:32:21.191Z,5.70
2017-09-15T15:34:49.436Z,5.90
2017-09-15T15:37:16.905Z,7.00
2017-09-15T15:39:45.156Z,6.07
2017-09-15T15:42:13.516Z,6.80
2017-09-15T15:44:41.064Z,6.50
2017-09-15T15:47:08.607Z,5.87
2017-09-15T15:49:36.071Z,5.50
2017-09-15T15:52:04.284Z,5.57
2017-09-15T15:54:31.775Z,5.17
2017-09-15T15:56:59.297Z,5.00
2017-09-15T15:59:27.552Z,4.37
2017-09-15T16:01:55.306Z,4.60
2017-09-15T16:04:23.556Z,4.07
2017-09-15T16:06:51.105Z,4.67
2017-09-15T16:09:18.650Z,4.40
2017-09-15T16:11:46.104Z,3.43
2017-09-15T16:14:14.352Z,4.67
2017-09-15T16:16:41.835Z,3.63
2017-09-15T16:19:09.296Z,3.17
2017-09-15T16:21:36.980Z,3.30
2017-09-15T16:24:04.433Z,3.20
2017-09-15T16:26:31.907Z,3.00
2017-09-15T16:28:59.368Z,3.20
2017-09-15T16:31:26.825Z,2.97
2017-09-15T16:33:54.325Z,3.30
2017-09-15T16:36:21.836Z,3.40
2017-09-15T16:38:55.700Z,4.00
2017-09-15T16:41:28.993Z,3.40
2017-09-15T16:44:02.223Z,3.73
2017-09-15T16:46:35.339Z,4.00
2017-09-15T16:49:08.499Z,4.00
2017-09-15T16:51:35.960Z,4.13
2017-09-15T16:54:03.451Z,4.37
2017-09-15T16:56:30.948Z,4.43
2017-09-15T16:58:59.164Z,4.57
2017-09-15T17:01:26.650Z,5.60
2017-09-15T17:03:54.193Z,6.30
2017-09-15T17:06:22.555Z,5.77
2017-09-15T17:08:50.816Z,5.80
2017-09-15T17:11:19.079Z,5.60
2017-09-15T17:13:46.724Z,5.93
2017-09-15T17:16:14.943Z,5.60
2017-09-15T17:18:42.407Z,5.97
2017-09-15T17:21:10.068Z,5.97
2017-09-15T17:23:37.611Z,6.67
2017-09-15T17:26:05.063Z,6.57
2017-09-15T17:28:33.307Z,6.17
2017-09-15T17:31:00.768Z,5.10
2017-09-15T17:33:29.013Z,5.47
2017-09-15T17:35:56.492Z,6.70
2017-09-15T17:38:23.957Z,6.83
2017-09-15T17:40:51.442Z,6.57
2017-09-15T17:43:19.703Z,6.83
2017-09-15T17:45:47.244Z,5.87
2017-09-15T17:48:14.787Z,6.30
2017-09-15T17:50:42.335Z,6.33
2017-09-15T17:53:10.556Z,7.37
2017-09-15T17:55:38.137Z,6.70
2017-09-15T17:58:05.680Z,6.20
2017-09-15T18:00:33.137Z,7.03
2017-09-15T18:03:00.711Z,7.03
2017-09-15T18:05:28.198Z,6.60
2017-09-15T18:07:55.648Z,7.43
2017-09-15T18:10:24.016Z,9.93
2017-09-15T18:12:52.280Z,7.73
2017-09-15T18:15:20.522Z,8.33
2017-09-15T18:17:48.205Z,9.63
2017-09-15T18:20:15.727Z,8.03
2017-09-15T18:22:43.979Z,8.20
2017-09-15T18:25:11.527Z,8.30
2017-09-15T18:27:38.990Z,8.33
2017-09-15T18:30:07.211Z,7.83
2017-09-15T18:32:34.667Z,9.40
2017-09-15T18:35:02.928Z,9.50
2017-09-15T18:37:30.410Z,8.83
2017-09-15T18:39:57.913Z,9.10
2017-09-15T18:42:25.395Z,9.97
2017-09-15T18:44:52.860Z,10.13
2017-09-15T18:47:20.339Z,11.00
2017-09-15T18:49:47.984Z,10.77
2017-09-15T18:52:16.249Z,10.27
2017-09-15T18:54:44.473Z,10.70
2017-09-15T18:57:11.956Z,10.47
2017-09-15T18:59:40.184Z,11.60
2017-09-15T19:02:07.644Z,11.03
2017-09-15T19:04:35.297Z,9.37
2017-09-15T19:07:03.520Z,8.43
2017-09-15T19:09:30.976Z,8.33
2017-09-15T19:11:58.444Z,8.30
2017-09-15T19:14:26.691Z,8.33
2017-09-15T19:16:54.172Z,7.53
2017-09-15T19:19:21.648Z,7.72
2017-09-15T19:21:49.112Z,8.70
2017-09-15T19:24:16.773Z,8.60
2017-09-15T19:26:44.996Z,8.03
2017-09-15T19:29:12.472Z,8.30
2017-09-15T19:31:40.933Z,8.70
2017-09-15T19:34:08.397Z,8.23
2017-09-15T19:36:35.859Z,8.88
2017-09-15T19:39:03.344Z,8.68
2017-09-15T19:41:30.807Z,8.63
2017-09-15T19:43:59.033Z,8.40
2017-09-15T19:46:26.528Z,10.73
2017-09-15T19:48:54.000Z,9.32
2017-09-15T19:51:21.460Z,9.70
2017-09-15T19:53:48.965Z,9.13
2017-09-15T20:15:26.559Z,10.50
2017-09-15T20:17:54.043Z,12.13
2017-09-15T20:20:21.510Z,11.30
2017-09-15T20:22:48.980Z,10.87
2017-09-15T20:25:16.436Z,11.77
2017-09-15T20:27:44.243Z,12.15
2017-09-15T20:30:12.608Z,12.27
2017-09-15T20:32:40.850Z,11.65
2017-09-15T20:35:08.418Z,11.85
2017-09-15T20:37:36.672Z,12.63
2017-09-15T20:40:04.910Z,12.60
2017-09-15T20:42:32.476Z,10.93
2017-09-15T20:45:00.940Z,11.63
2017-09-15T20:47:29.199Z,12.43
2017-09-15T20:49:57.455Z,12.18
2017-09-15T20:52:25.012Z,11.80
2017-09-15T20:54:53.239Z,12.32
2017-09-15T20:57:20.696Z,11.18
2017-09-15T20:59:48.233Z,11.18
2017-09-15T21:02:15.804Z,12.60
2017-09-15T21:04:44.256Z,12.63
2017-09-15T21:07:12.489Z,12.18
2017-09-15T21:09:39.953Z,12.63
2017-09-15T21:12:07.508Z,12.40
2017-09-15T21:14:35.739Z,12.70
2017-09-15T21:17:03.213Z,12.43
2017-09-15T21:19:30.695Z,14.30
2017-09-15T21:21:58.158Z,12.93
2017-09-15T21:24:25.684Z,12.37
2017-09-15T21:26:53.601Z,12.32
2017-09-15T21:29:21.841Z,13.20
2017-09-15T21:31:49.408Z,12.45
2017-09-15T21:34:18.516Z,13.73
2017-09-15T21:36:46.032Z,12.45
2017-09-15T21:39:14.277Z,12.77
2017-09-15T21:41:41.813Z,12.15
2017-09-15T21:44:09.367Z,12.00
2017-09-15T21:46:37.623Z,12.57
2017-09-15T21:49:05.172Z,12.55
2017-09-15T21:51:33.439Z,11.52
2017-09-15T21:54:01.699Z,12.15
2017-09-15T21:56:29.969Z,11.30
2017-09-15T21:58:57.493Z,11.35
2017-09-15T22:01:24.958Z,11.20
2017-09-15T22:03:58.276Z,11.40
2017-09-15T22:06:25.826Z,10.90
2017-09-15T22:08:53.362Z,11.70
2017-09-15T22:11:21.808Z,11.93
2017-09-15T22:13:49.264Z,11.50
2017-09-15T22:16:17.497Z,10.70
2017-09-15T22:18:44.992Z,10.35
2017-09-15T22:21:12.478Z,12.20
2017-09-15T22:23:39.931Z,12.27
2017-09-15T22:26:07.892Z,10.50
2017-09-15T22:28:36.139Z,11.40
2017-09-15T22:31:03.693Z,10.80
2017-09-15T22:33:31.156Z,11.32
2017-09-15T22:35:58.680Z,12.60
2017-09-15T22:38:27.229Z,13.02
2017-09-15T22:40:55.484Z,11.55
2017-09-15T22:43:23.052Z,13.90
2017-09-15T22:45:51.496Z,10.80
2017-09-15T22:48:18.951Z,12.75
2017-09-15T22:50:47.181Z,12.45
2017-09-15T22:53:14.689Z,12.37
2017-09-15T22:55:42.315Z,13.30
2017-09-15T22:58:09.771Z,12.75
2017-09-15T23:00:37.240Z,13.82
2017-09-15T23:03:04.764Z,13.70
2017-09-15T23:05:33.329Z,13.52
2017-09-15T23:08:00.833Z,13.65
2017-09-15T23:10:28.300Z,14.30
2017-09-15T23:12:55.960Z,15.60
2017-09-15T23:15:24.216Z,14.65
2017-09-15T23:17:52.481Z,15.60
2017-09-15T23:20:20.128Z,14.30
2017-09-15T23:22:47.580Z,13.90
2017-09-15T23:25:15.823Z,14.90
2017-09-15T23:27:43.313Z,16.05
2017-09-15T23:30:10.769Z,14.40
2017-09-15T23:32:38.259Z,14.60
2017-09-15T23:35:06.008Z,15.10
2017-09-15T23:37:33.462Z,15.13
2017-09-15T23:40:01.676Z,14.35
2017-09-15T23:42:29.169Z,14.70
2017-09-15T23:44:57.421Z,15.00
2017-09-15T23:47:25.648Z,15.13
2017-09-15T23:49:53.129Z,16.35
2017-09-15T23:52:20.587Z,15.35
2017-09-15T23:54:48.036Z,15.48
2017-09-15T23:57:15.507Z,15.75
2017-09-15T23:59:42.960Z,15.60
